Time;durP1;ratioP1;P1;durP2;ratioP2;P2;SDS_P1;SDS_P2;PMS_P1;PMS_P2;Temp;Humidity;BMP_temperature;BMP_pressure;BME280_temperature;BME280_humidity;BME280_pressure;Samples;Min_cycle;Max_cycle;Signal;HPM_P1;HPM_P2
2022/12/22 03:27:33;;;;;;;1.80;1.02;;;11.90;99.90;;;;;;5059315;28;20032;-75
2022/12/22 03:29:59;;;;;;;7.85;1.13;;;12.00;99.90;;;;;;5059864;28;20021;-75
2022/12/22 03:32:25;;;;;;;5.50;1.65;;;;;;;;;;5075106;28;20028;-77
2022/12/22 03:34:51;;;;;;;5.13;1.00;;;12.00;99.90;;;;;;5059432;28;20021;-76
2022/12/22 03:37:16;;;;;;;2.67;0.90;;;12.00;99.90;;;;;;5058572;28;20325;-76
2022/12/22 03:39:42;;;;;;;2.20;0.60;;;12.30;99.90;;;;;;5059728;28;20021;-76
2022/12/22 03:47:38;;;;;;;5.65;1.40;;;12.10;99.50;;;;;;5062991;28;20276;-76
2022/12/22 03:50:04;;;;;;;3.38;0.88;;;12.20;99.60;;;;;;5063083;28;20024;-76
2022/12/22 03:52:30;;;;;;;1.75;0.60;;;12.20;98.60;;;;;;5061854;28;20024;-75
2022/12/22 03:54:56;;;;;;;1.13;0.73;;;11.80;99.10;;;;;;5063369;28;20104;-74
2022/12/22 03:57:21;;;;;;;2.97;1.67;;;12.10;98.70;;;;;;5077765;28;20063;-76
2022/12/22 03:59:47;;;;;;;2.63;0.70;;;12.20;98.00;;;;;;5061509;28;20032;-75
2022/12/22 04:02:13;;;;;;;5.78;0.77;;;12.20;97.90;;;;;;5063163;28;20036;-76
2022/12/22 04:04:38;;;;;;;1.55;0.52;;;12.20;97.50;;;;;;5062045;28;20032;-75
2022/12/22 04:07:04;;;;;;;0.98;0.82;;;12.10;97.20;;;;;;5077901;28;20037;-76
2022/12/22 04:09:29;;;;;;;1.20;0.40;;;12.00;98.70;;;;;;5062436;28;20028;-75
2022/12/22 04:14:39;;;;;;;1.13;1.00;;;11.60;97.40;;;;;;5062501;28;20061;-75
2022/12/22 04:17:06;;;;;;;0.80;0.57;;;12.00;97.40;;;;;;5061086;28;20025;-76
2022/12/22 04:19:32;;;;;;;0.85;0.85;;;11.90;97.90;;;;;;5062646;28;20047;-75
2022/12/22 04:21:58;;;;;;;8.00;1.35;;;;;;;;;;5061122;28;20457;-76
2022/12/22 04:24:24;;;;;;;4.38;0.75;;;11.90;97.60;;;;;;5061556;28;20032;-76
2022/12/22 04:26:50;;;;;;;4.00;0.93;;;11.90;96.90;;;;;;5061051;28;20025;-76
2022/12/22 04:29:16;;;;;;;2.53;0.55;;;12.00;99.90;;;;;;5062418;28;20082;-76
2022/12/22 04:31:42;;;;;;;3.20;1.65;;;11.90;98.00;;;;;;5062127;28;20279;-75
2022/12/22 04:34:09;;;;;;;1.42;0.45;;;11.80;98.10;;;;;;5061968;28;20090;-73
2022/12/22 04:36:35;;;;;;;0.28;0.28;;;11.80;98.60;;;;;;5062187;28;20021;-75
2022/12/22 04:39:01;;;;;;;4.30;0.68;;;11.90;97.50;;;;;;5061624;28;20151;-76
2022/12/22 04:41:26;;;;;;;0.50;0.50;;;11.90;97.90;;;;;;5062153;28;20025;-76
2022/12/22 04:43:52;;;;;;;1.27;0.50;;;12.00;97.50;;;;;;5060623;28;20245;-76
2022/12/22 04:46:18;;;;;;;0.40;0.40;;;12.00;97.20;;;;;;5061318;28;20028;-75
2022/12/22 04:48:43;;;;;;;1.45;0.63;;;12.00;96.70;;;;;;5061995;28;20088;-76
2022/12/22 04:51:09;;;;;;;0.22;0.20;;;12.10;97.10;;;;;;5061442;28;20021;-77
2022/12/22 04:53:35;;;;;;;5.43;0.88;;;12.20;96.70;;;;;;5078480;28;20032;-77
2022/12/22 04:56:06;;;;;;;0.30;0.30;;;12.10;99.90;;;;;;5061446;28;20097;-77
2022/12/22 04:58:33;;;;;;;0.80;0.80;;;12.10;96.70;;;;;;5060202;28;20040;-76
2022/12/22 05:01:18;;;;;;;1.35;0.75;;;11.90;98.80;;;;;;5061894;28;20027;-75
2022/12/22 05:03:43;;;;;;;1.85;0.30;;;11.80;99.30;;;;;;5062587;28;20021;-75
2022/12/22 05:06:10;;;;;;;0.43;0.28;;;11.70;99.90;;;;;;5060921;28;20044;-75
2022/12/22 05:08:36;;;;;;;0.80;0.75;;;11.00;99.90;;;;;;5062072;28;20328;-75
2022/12/22 05:11:02;;;;;;;1.75;0.85;;;11.20;99.90;;;;;;5061967;28;20372;-75
2022/12/22 05:13:29;;;;;;;1.95;0.85;;;11.00;99.90;;;;;;5061048;28;20064;-74
2022/12/22 05:16:05;;;;;;;1.60;0.68;;;11.00;99.90;;;;;;5061472;28;20025;-74
2022/12/22 05:18:31;;;;;;;0.65;0.65;;;11.10;99.90;;;;;;5059984;28;20074;-73
2022/12/22 05:20:57;;;;;;;0.73;0.73;;;11.20;99.90;;;;;;5061745;28;20062;-75
2022/12/22 05:23:23;;;;;;;2.08;1.05;;;11.20;99.90;;;;;;5061271;28;20024;-76
2022/12/22 05:25:48;;;;;;;2.55;0.50;;;9.20;99.90;;;;;;5060744;28;20032;-76
2022/12/22 05:28:14;;;;;;;1.45;0.52;;;11.40;99.90;;;;;;5061000;28;20080;-75
2022/12/22 05:30:40;;;;;;;2.58;1.17;;;11.60;99.90;;;;;;5076958;28;20025;-76
2022/12/22 05:33:06;;;;;;;2.45;0.60;;;11.80;99.90;;;;;;5076222;28;20025;-75
2022/12/22 05:35:32;;;;;;;7.32;1.70;;;;;;;;;;5060879;28;20028;-74
2022/12/22 05:37:57;;;;;;;6.03;1.25;;;11.80;98.60;;;;;;5060287;28;20060;-75
2022/12/22 05:40:23;;;;;;;3.83;1.05;;;11.80;97.70;;;;;;5061514;28;20313;-74
2022/12/22 05:42:48;;;;;;;5.60;2.22;;;11.80;98.10;;;;;;5060782;28;20025;-75
2022/12/22 05:45:19;;;;;;;4.75;1.50;;;11.80;97.30;;;;;;5061194;28;20032;-76
2022/12/22 05:47:47;;;;;;;1.75;0.85;;;11.70;97.20;;;;;;5060840;28;20075;-75
2022/12/22 05:50:16;;;;;;;6.30;1.70;;;11.70;98.20;;;;;;5061685;28;20017;-75
2022/12/22 05:52:41;;;;;;;6.03;1.25;;;11.80;97.30;;;;;;5059152;28;20056;-73
2022/12/22 05:55:08;;;;;;;5.53;0.80;;;11.70;96.90;;;;;;5060506;28;20027;-73
2022/12/22 05:57:34;;;;;;;3.03;1.23;;;11.70;96.80;;;;;;5060520;28;20029;-75
2022/12/22 06:00:00;;;;;;;2.65;1.15;;;11.70;97.30;;;;;;5059118;28;20025;-73
2022/12/22 06:02:26;;;;;;;4.20;1.02;;;11.70;97.20;;;;;;5059921;28;20121;-76
2022/12/22 06:04:52;;;;;;;4.55;1.65;;;11.60;97.50;;;;;;5060942;28;20071;-75
2022/12/22 06:07:17;;;;;;;11.35;2.13;;;11.80;97.50;;;;;;5058759;28;20032;-73
2022/12/22 06:09:43;;;;;;;1.10;0.75;;;11.80;98.50;;;;;;5059374;28;20063;-73
2022/12/22 06:12:08;;;;;;;3.17;1.70;;;11.70;99.40;;;;;;5061024;28;20352;-73
2022/12/22 06:14:34;;;;;;;6.18;0.77;;;11.60;99.90;;;;;;5061123;28;20313;-73
2022/12/22 06:17:00;;;;;;;3.38;1.00;;;11.50;99.90;;;;;;5060125;28;20186;-73
2022/12/22 06:19:25;;;;;;;0.55;0.55;;;11.40;99.90;;;;;;5061090;28;20020;-73
2022/12/22 06:21:51;;;;;;;4.50;0.82;;;11.30;99.90;;;;;;5060939;28;20020;-73
2022/12/22 06:24:17;;;;;;;5.32;1.15;;;11.20;99.90;;;;;;5060175;28;20378;-74
2022/12/22 06:26:42;;;;;;;0.88;0.77;;;11.20;99.90;;;;;;5060395;28;20109;-73
2022/12/22 06:29:08;;;;;;;5.32;0.65;;;11.10;99.90;;;;;;5059996;28;20073;-75
2022/12/22 06:31:33;;;;;;;0.68;0.68;;;10.90;99.90;;;;;;5061451;28;20044;-76
2022/12/22 06:33:59;;;;;;;4.65;2.00;;;10.80;99.90;;;;;;5061231;28;20221;-75
2022/12/22 06:36:25;;;;;;;3.03;1.13;;;;;;;;;;5062006;28;20020;-76
2022/12/22 06:38:51;;;;;;;3.10;0.50;;;;;;;;;;5061999;28;20084;-72
2022/12/22 06:43:07;;;;;;;3.47;0.40;;;;;;;;;;5061581;28;20033;-75
2022/12/22 06:44:03;;;;;;;4.53;1.15;;;;;;;;;;5061922;28;20379;-76
2022/12/22 06:46:29;;;;;;;1.33;0.75;;;;;;;;;;5062463;28;20474;-72
2022/12/22 06:48:55;;;;;;;0.52;0.40;;;;;;;;;;5060454;28;20025;-74
2022/12/22 06:51:21;;;;;;;3.58;0.63;;;;;;;;;;5060661;28;20021;-75
2022/12/22 06:53:47;;;;;;;7.10;0.80;;;;;;;;;;5060161;28;20313;-75
2022/12/22 06:56:13;;;;;;;2.05;0.40;;;;;;;;;;5060252;28;20021;-76
2022/12/22 06:58:39;;;;;;;1.52;0.75;;;;;;;;;;5060574;28;20029;-74
2022/12/22 07:01:05;;;;;;;6.22;0.60;;;;;;;;;;5060385;28;20070;-74
2022/12/22 07:03:31;;;;;;;5.75;1.52;;;;;;;;;;5060581;28;20313;-72
2022/12/22 07:05:57;;;;;;;4.53;1.00;;;;;;;;;;5058562;28;20025;-75
2022/12/22 07:08:23;;;;;;;3.65;0.93;;;;;;;;;;5059182;28;20321;-75
2022/12/22 07:10:58;;;;;;;2.92;0.93;;;;;;;;;;5060720;28;20024;-74
2022/12/22 07:13:28;;;;;;;6.50;2.13;;;;;;;;;;5059909;28;20101;-76
2022/12/22 07:15:54;;;;;;;3.70;1.63;;;;;;;;;;5060092;28;20025;-77
2022/12/22 07:18:20;;;;;;;11.40;1.27;;;;;;;;;;5058922;28;20363;-77
2022/12/22 07:20:46;;;;;;;1.75;0.90;;;;;;;;;;5060294;28;20100;-76
2022/12/22 07:23:12;;;;;;;1.73;0.60;;;;;;;;;;5059473;28;20036;-75
2022/12/22 07:25:38;;;;;;;5.55;1.38;;;;;;;;;;5059860;28;20025;-75
2022/12/22 07:28:05;;;;;;;2.10;0.75;;;;;;;;;;5059105;28;20258;-77
2022/12/22 07:30:32;;;;;;;6.57;0.70;;;;;;;;;;5059783;28;20025;-76
2022/12/22 07:32:58;;;;;;;4.88;0.55;;;;;;;;;;5059360;28;20321;-76
2022/12/22 07:35:24;;;;;;;2.03;0.90;;;;;;;;;;5059935;28;20028;-74
2022/12/22 07:37:50;;;;;;;3.25;0.77;;;;;;;;;;5059304;28;20053;-75
2022/12/22 07:40:16;;;;;;;2.65;1.05;;;;;;;;;;5059292;28;20124;-75
2022/12/22 07:42:45;;;;;;;3.50;1.02;;;;;;;;;;5058878;28;20025;-73
2022/12/22 07:45:15;;;;;;;7.38;1.30;;;;;;;;;;5058003;28;20321;-77
2022/12/22 07:47:41;;;;;;;6.38;2.00;;;;;;;;;;5060286;28;20041;-74
2022/12/22 07:50:26;;;;;;;5.35;0.70;;;;;;;;;;5056868;28;20021;-77
2022/12/22 07:52:52;;;;;;;2.83;0.98;;;;;;;;;;5059361;28;20021;-76
2022/12/22 07:55:19;;;;;;;2.28;0.90;;;;;;;;;;5059175;28;20025;-76
2022/12/22 07:57:45;;;;;;;2.38;1.13;;;;;;;;;;5060063;28;20084;-76
2022/12/22 08:00:11;;;;;;;3.75;1.75;;;;;;;;;;5075592;28;20260;-76
2022/12/22 08:02:37;;;;;;;4.72;0.90;;;;;;;;;;5060418;28;20029;-76
2022/12/22 08:05:04;;;;;;;10.50;2.05;;;;;;;;;;5060541;28;20024;-76
2022/12/22 08:07:31;;;;;;;3.10;1.10;;;;;;;;;;5075527;28;20112;-75
2022/12/22 08:09:57;;;;;;;6.97;2.35;;;;;;;;;;5075439;28;20025;-75
2022/12/22 08:12:23;;;;;;;3.40;1.20;;;;;;;;;;5055474;28;20025;-75
2022/12/22 08:14:49;;;;;;;4.78;1.42;;;;;;;;;;5057067;28;20309;-75
2022/12/22 08:17:15;;;;;;;7.43;2.50;;;;;;;;;;5056245;28;20044;-74
2022/12/22 08:19:41;;;;;;;8.60;2.92;;;;;;;;;;5058696;28;20040;-74
2022/12/22 08:22:07;;;;;;;5.72;0.88;;;;;;;;;;5057996;28;20035;-73
2022/12/22 08:24:38;;;;;;;8.80;1.52;;;;;;;;;;5058864;28;20336;-74
2022/12/22 08:27:06;;;;;;;4.43;0.93;;;;;;;;;;5048533;28;20144;-75
2022/12/22 08:29:38;;;;;;;8.52;1.13;;;;;;;;;;5055068;28;20017;-74
2022/12/22 08:32:04;;;;;;;3.05;1.10;;;;;;;;;;5070412;28;20387;-75
2022/12/22 08:34:30;;;;;;;4.47;1.15;;;;;;;;;;5069149;28;20466;-74
2022/12/22 08:37:00;;;;;;;2.83;1.15;;;;;;;;;;5073040;28;20144;-74
2022/12/22 08:39:27;;;;;;;8.27;2.53;;;;;;;;;;5070969;28;20548;-76
2022/12/22 08:41:53;;;;;;;3.17;1.38;;;;;;;;;;5058124;28;20182;-75
2022/12/22 08:44:19;;;;;;;5.65;1.83;;;;;;;;;;5059579;28;20179;-75
2022/12/22 08:46:45;;;;;;;7.82;1.92;;;;;;;;;;5060974;28;20205;-75
2022/12/22 08:49:12;;;;;;;4.15;1.27;;;;;;;;;;5061408;28;20309;-76
2022/12/22 08:51:37;;;;;;;9.73;1.73;;;;;;;;;;5061766;28;20098;-74
2022/12/22 08:54:04;;;;;;;5.03;0.82;;;;;;;;;;5047775;28;20024;-74
2022/12/22 08:56:30;;;;;;;5.85;1.33;;;;;;;;;;5039824;28;20395;-75
2022/12/22 08:58:56;;;;;;;2.67;1.58;;;;;;;;;;5039701;28;20031;-75
2022/12/22 09:01:22;;;;;;;8.90;1.92;;;;;;;;;;5046287;28;20157;-74
2022/12/22 09:03:49;;;;;;;5.18;1.52;;;;;;;;;;5046326;28;20447;-74
2022/12/22 09:06:16;;;;;;;2.97;1.60;;;;;;;;;;5036385;28;20358;-74
2022/12/22 09:08:42;;;;;;;5.60;1.20;;;;;;;;;;5046666;28;20033;-75
2022/12/22 09:11:08;;;;;;;3.33;0.90;;;;;;;;;;5047315;28;20081;-74
2022/12/22 09:13:34;;;;;;;5.45;1.70;;;;;;;;;;5048018;28;20426;-76
2022/12/22 09:16:03;;;;;;;3.60;0.95;;;;;;;;;;5052303;28;20032;-76
2022/12/22 09:18:29;;;;;;;1.27;1.17;;;;;;;;;;5050567;28;20031;-75
2022/12/22 09:20:55;;;;;;;1.83;0.73;;;;;;;;;;5049578;28;20103;-76
2022/12/22 09:23:21;;;;;;;4.43;1.92;;;;;;;;;;5057205;28;20310;-75
2022/12/22 09:25:47;;;;;;;3.90;1.73;;;;;;;;;;5049904;28;20092;-76
2022/12/22 09:28:13;;;;;;;8.80;0.98;;;;;;;;;;5047911;28;20114;-75
2022/12/22 09:30:39;;;;;;;2.03;0.95;;;;;;;;;;5047694;28;20036;-74
2022/12/22 09:33:05;;;;;;;5.05;1.65;;;;;;;;;;5046866;28;20029;-74
2022/12/22 09:35:31;;;;;;;4.75;1.17;;;;;;;;;;5048187;28;20021;-75
2022/12/22 09:37:57;;;;;;;7.97;1.10;;;;;;;;;;5048953;28;20117;-77
2022/12/22 09:40:23;;;;;;;3.88;1.40;;;;;;;;;;5044988;28;20025;-74
2022/12/22 09:42:50;;;;;;;4.82;1.10;;;;;;;;;;5047840;28;20032;-73
2022/12/22 09:45:19;;;;;;;4.72;0.70;;;;;;;;;;5047465;28;20013;-74
2022/12/22 09:47:52;;;;;;;2.93;0.80;;;;;;;;;;5047377;28;20140;-75
2022/12/22 09:50:22;;;;;;;2.75;0.95;;;;;;;;;;5048639;28;20275;-76
2022/12/22 09:52:50;;;;;;;6.60;1.13;;;;;;;;;;5049307;28;20056;-76
2022/12/22 09:55:28;;;;;;;1.63;0.93;;;;;;;;;;5049116;28;20109;-75
2022/12/22 09:57:54;;;;;;;5.70;2.15;;;;;;;;;;5046844;28;20520;-74
2022/12/22 10:00:23;;;;;;;7.47;3.08;;;;;;;;;;5050509;28;20086;-74
2022/12/22 10:03:00;;;;;;;5.00;1.50;;;;;;;;;;5053349;28;20036;-75
2022/12/22 10:05:44;;;;;;;9.05;1.75;;;;;;;;;;5058049;28;20086;-75
2022/12/22 10:08:21;;;;;;;1.42;0.80;;;;;;;;;;5055792;28;20099;-76
2022/12/22 10:10:52;;;;;;;6.35;1.10;;;;;;;;;;5054742;28;20021;-75
2022/12/22 10:13:18;;;;;;;4.82;1.52;;;;;;;;;;5054935;28;20108;-74
2022/12/22 10:15:45;;;;;;;1.48;0.88;;;;;;;;;;5058228;28;20020;-76
2022/12/22 10:18:12;;;;;;;9.40;1.75;;;;;;;;;;5051230;28;20035;-72
2022/12/22 10:20:39;;;;;;;2.40;1.25;;;;;;;;;;5049447;28;20031;-75
2022/12/22 10:23:16;;;;;;;4.13;1.30;;;;;;;;;;5047356;28;20017;-75
2022/12/22 10:25:49;;;;;;;9.48;2.15;;;;;;;;;;5047890;28;20063;-74
2022/12/22 10:28:22;;;;;;;6.55;1.63;;;;;;;;;;5048170;28;20486;-75
2022/12/22 10:30:48;;;;;;;8.40;1.70;;;;;;;;;;5048923;28;20516;-75
2022/12/22 10:33:15;;;;;;;3.35;1.10;;;;;;;;;;5048759;28;20076;-74
2022/12/22 10:35:41;;;;;;;8.15;1.45;;;;;;;;;;5048692;28;20116;-74
2022/12/22 10:38:15;;;;;;;14.43;3.33;;;;;;;;;;5048861;28;20053;-75
2022/12/22 10:40:43;;;;;;;8.02;2.33;;;;;;;;;;5047946;28;20033;-76
2022/12/22 10:43:09;;;;;;;4.35;2.55;;;;;;;;;;5049211;28;20049;-76
2022/12/22 10:45:36;;;;;;;12.43;2.65;;;;;;;;;;5049159;28;20486;-75
2022/12/22 10:48:02;;;;;;;11.35;1.90;;;;;;;;;;5049269;28;20121;-75
2022/12/22 10:50:29;;;;;;;10.70;2.55;;;;;;;;;;5047990;28;20033;-76
2022/12/22 10:52:56;;;;;;;11.18;2.65;;;;;;;;;;5047493;28;20454;-74
2022/12/22 10:55:27;;;;;;;12.88;1.50;;;;;;;;;;5050241;28;20029;-75
2022/12/22 10:58:08;;;;;;;11.13;2.22;;;;;;;;;;5049329;28;20031;-75
2022/12/22 11:00:36;;;;;;;6.53;1.20;;;;;;;;;;5048396;28;20032;-75
2022/12/22 11:03:02;;;;;;;5.13;1.52;;;;;;;;;;5048204;28;20081;-75
2022/12/22 11:05:29;;;;;;;10.15;2.25;;;;;;;;;;5049725;28;20062;-75
2022/12/22 11:07:55;;;;;;;7.15;1.45;;;;;;;;;;5048405;28;20037;-75
2022/12/22 11:10:24;;;;;;;7.18;1.88;;;;;;;;;;5049721;28;20028;-75
2022/12/22 11:12:50;;;;;;;8.80;1.95;;;;;;;;;;5049577;28;20386;-75
2022/12/22 11:15:23;;;;;;;7.47;1.52;;;;;;;;;;5049595;28;20481;-75
2022/12/22 11:17:58;;;;;;;14.15;1.90;;;;;;;;;;5050022;28;20279;-73
2022/12/22 11:20:34;;;;;;;13.32;2.15;;;;;;;;;;5049751;28;20040;-75
2022/12/22 11:23:09;;;;;;;12.93;1.58;;;;;;;;;;5049769;28;20028;-74
2022/12/22 11:25:35;;;;;;;8.95;1.98;;;;;;;;;;5049687;28;20029;-76
2022/12/22 11:28:17;;;;;;;7.60;2.38;;;;;;;;;;5049282;28;20084;-76
2022/12/22 11:30:48;;;;;;;11.80;1.95;;;;;;;;;;5049734;28;20078;-73
2022/12/22 11:33:37;;;;;;;8.38;2.28;;;;;;;;;;5049456;28;20025;-74
2022/12/22 11:36:27;;;;;;;8.95;1.80;;;;;;;;;;5047560;28;20026;-74
2022/12/22 11:39:28;;;;;;;15.48;2.55;;;;;;;;;;5019756;28;20485;-75
2022/12/22 11:42:00;;;;;;;10.02;1.75;;;;;;;;;;5006512;28;20112;-75
2022/12/22 11:44:35;;;;;;;11.27;2.00;;;;;;;;;;5041840;28;20055;-75
2022/12/22 11:47:02;;;;;;;8.52;2.58;;;;;;;;;;5047682;28;20036;-74
2022/12/22 11:49:43;;;;;;;13.35;1.10;;;;;;;;;;5049083;28;20021;-76
2022/12/22 11:52:35;;;;;;;9.65;2.05;;;;;;;;;;5049157;28;20021;-74
2022/12/22 11:55:30;;;;;;;7.30;2.33;;;;;;;;;;5024922;28;20196;-74
2022/12/22 11:58:15;;;;;;;9.52;1.50;;;;;;;;;;5040136;28;20522;-74
2022/12/22 12:01:01;;;;;;;3.35;1.58;;;;;;;;;;5049409;28;20025;-74
2022/12/22 12:03:55;;;;;;;3.42;1.00;;;;;;;;;;5037585;28;20033;-74
2022/12/22 12:06:32;;;;;;;9.40;2.40;;;;;;;;;;5052730;28;20064;-73
2022/12/22 12:09:05;;;;;;;3.53;1.42;;;;;;;;;;5052606;28;20123;-75
2022/12/22 12:11:46;;;;;;;9.02;2.65;;;;;;;;;;5051412;28;20128;-73
2022/12/22 12:14:31;;;;;;;9.35;1.23;;;;;;;;;;5051094;28;20029;-73
2022/12/22 12:16:57;;;;;;;17.27;2.67;;;;;;;;;;5051465;28;20458;-74
2022/12/22 12:19:29;;;;;;;9.02;2.00;;;;;;;;;;5052880;28;20102;-74
2022/12/22 12:21:57;;;;;;;14.30;2.22;;;;;;;;;;5051265;28;20115;-74
2022/12/22 12:24:23;;;;;;;3.35;1.27;;;;;;;;;;5052547;28;20029;-73
2022/12/22 12:27:07;;;;;;;8.30;1.10;;;;;;;;;;5052607;28;20039;-75
2022/12/22 12:29:40;;;;;;;5.55;1.33;;;;;;;;;;5051048;28;20033;-73
2022/12/22 12:32:09;;;;;;;2.53;1.70;;;;;;;;;;5050881;28;20081;-74
2022/12/22 12:34:36;;;;;;;5.63;1.75;;;;;;;;;;5052356;28;20028;-73
2022/12/22 12:37:11;;;;;;;5.53;0.80;;;;;;;;;;5051011;28;20032;-73
2022/12/22 12:39:56;;;;;;;6.85;1.65;;;;;;;;;;5051056;28;20517;-73
2022/12/22 12:42:22;;;;;;;5.88;1.33;;;;;;;;;;5050856;28;20025;-73
2022/12/22 12:44:51;;;;;;;10.75;2.65;;;;;;;;;;5052079;28;20025;-74
2022/12/22 12:47:27;;;;;;;2.55;1.00;;;;;;;;;;5050545;28;20516;-73
2022/12/22 12:49:56;;;;;;;8.98;2.20;;;;;;;;;;5050616;28;20033;-74
2022/12/22 12:52:55;;;;;;;5.68;1.45;;;;;;;;;;5052105;28;20504;-73
2022/12/22 12:55:29;;;;;;;7.03;1.33;;;;;;;;;;5028724;28;20056;-75
2022/12/22 12:57:56;;;;;;;11.25;1.52;;;;;;;;;;5052140;28;20052;-74
2022/12/22 13:00:35;;;;;;;5.22;1.60;;;;;;;;;;5050417;28;20461;-74
2022/12/22 13:03:02;;;;;;;3.63;1.75;;;;;;;;;;5052400;28;20051;-74
2022/12/22 13:05:35;;;;;;;6.57;1.90;;;;;;;;;;5050497;28;20047;-74
2022/12/22 13:08:07;;;;;;;10.40;1.85;;;;;;;;;;5051561;28;20166;-73
2022/12/22 13:10:34;;;;;;;5.97;1.13;;;;;;;;;;5051852;28;20113;-73
2022/12/22 13:13:01;;;;;;;7.95;1.65;;;;;;;;;;5051704;28;20119;-75
2022/12/22 13:15:37;;;;;;;5.07;1.02;;;;;;;;;;5050890;28;20029;-73
2022/12/22 13:18:07;;;;;;;6.57;1.42;;;;;;;;;;5050400;28;20057;-73
2022/12/22 13:20:35;;;;;;;5.85;1.38;;;;;;;;;;5051568;28;20021;-74
2022/12/22 13:23:03;;;;;;;2.60;0.77;;;;;;;;;;5051508;28;20068;-74
2022/12/22 13:25:49;;;;;;;1.65;1.33;;;;;;;;;;5051325;28;20017;-73
2022/12/22 13:28:16;;;;;;;3.30;1.85;;;;;;;;;;5051398;28;20037;-74
2022/12/22 13:30:49;;;;;;;3.25;1.27;;;;;;;;;;5051381;28;20052;-74
2022/12/22 13:33:17;;;;;;;8.02;1.92;;;;;;;;;;5051286;28;20174;-73
2022/12/22 13:35:45;;;;;;;6.15;1.20;;;;;;;;;;5051422;28;20021;-73
2022/12/22 13:38:29;;;;;;;8.85;0.95;;;;;;;;;;5051128;28;20048;-75
2022/12/22 13:40:55;;;;;;;11.13;2.38;;;;;;;;;;5050170;28;20072;-74
2022/12/22 13:43:22;;;;;;;7.00;1.00;;;;;;;;;;5050954;28;20053;-73
2022/12/22 13:45:52;;;;;;;4.40;2.15;;;;;;;;;;5050808;28;20040;-73
2022/12/22 13:48:25;;;;;;;7.38;2.10;;;;;;;;;;5050976;28;20124;-74
2022/12/22 13:50:52;;;;;;;4.47;1.23;;;;;;;;;;5050870;28;20029;-74
2022/12/22 13:53:24;;;;;;;7.60;2.25;;;;;;;;;;5050897;28;20083;-73
2022/12/22 13:55:51;;;;;;;3.80;1.33;;;;;;;;;;5050817;28;20086;-74
2022/12/22 13:58:30;;;;;;;8.40;1.35;;;;;;;;;;5049381;28;20063;-74
2022/12/22 14:01:12;;;;;;;4.68;1.75;;;;;;;;;;5049294;28;20029;-74
2022/12/22 14:03:44;;;;;;;5.15;1.60;;;;;;;;;;5050748;28;20021;-75
2022/12/22 14:06:21;;;;;;;2.65;1.30;;;;;;;;;;5049380;28;20032;-73
2022/12/22 14:08:47;;;;;;;2.58;1.50;;;;;;;;;;5049084;28;20489;-74
2022/12/22 14:11:13;;;;;;;9.00;1.88;;;;;;;;;;5049091;28;20477;-75
2022/12/22 14:13:39;;;;;;;10.93;1.35;;;;;;;;;;5050785;28;20029;-75
2022/12/22 14:16:05;;;;;;;4.43;1.98;;;;;;;;;;5050208;28;20493;-74
2022/12/22 14:18:32;;;;;;;5.78;1.15;;;;;;;;;;5051687;28;20111;-74
2022/12/22 14:20:59;;;;;;;4.75;1.63;;;;;;;;;;5048720;28;20017;-74
2022/12/22 14:23:27;;;;;;;4.97;0.88;;;;;;;;;;5049141;28;20470;-73
2022/12/22 14:25:55;;;;;;;9.48;2.60;;;;;;;;;;5049245;28;20013;-74
2022/12/22 14:28:21;;;;;;;5.63;1.10;;;;;;;;;;5048169;28;20065;-74
2022/12/22 14:30:49;;;;;;;2.75;1.35;;;;;;;;;;5055227;28;20056;-74
2022/12/22 14:33:15;;;;;;;3.13;1.17;;;;;;;;;;5039695;28;20018;-73
2022/12/22 14:35:41;;;;;;;3.35;1.27;;;;;;;;;;5053428;28;20117;-75
2022/12/22 14:38:23;;;;;;;6.35;2.35;;;;;;;;;;5039724;28;20094;-74
2022/12/22 14:40:50;;;;;;;8.05;1.00;;;;;;;;;;5047874;28;20028;-74
2022/12/22 14:43:16;;;;;;;5.22;1.75;;;;;;;;;;5048823;28;20525;-73
2022/12/22 14:45:42;;;;;;;3.55;1.75;;;;;;;;;;5055998;28;20116;-74
2022/12/22 14:48:09;;;;;;;10.65;1.00;;;;;;;;;;5048414;28;20035;-73
2022/12/22 14:50:35;;;;;;;5.50;1.55;;;;;;;;;;5056269;28;20062;-73
2022/12/22 14:53:03;;;;;;;9.43;1.58;;;;;;;;;;5055597;28;20108;-74
2022/12/22 14:55:34;;;;;;;5.38;1.00;;;;;;;;;;5048777;28;20017;-74
2022/12/22 14:58:00;;;;;;;3.17;1.15;;;;;;;;;;5048726;28;20059;-73
2022/12/22 15:00:28;;;;;;;5.53;2.28;;;;;;;;;;5049289;28;20052;-74
2022/12/22 15:03:05;;;;;;;9.82;1.67;;;;;;;;;;5049404;28;20013;-74
2022/12/22 15:05:34;;;;;;;9.25;1.92;;;;;;;;;;5046341;28;20021;-73
2022/12/22 15:08:00;;;;;;;7.73;2.30;;;;;;;;;;5048305;28;20378;-73
2022/12/22 15:10:28;;;;;;;9.07;3.22;;;;;;;;;;5048257;28;20029;-74
2022/12/22 15:12:57;;;;;;;10.82;2.38;;;;;;;;;;5055162;28;20528;-73
2022/12/22 15:15:24;;;;;;;4.15;1.52;;;;;;;;;;5037304;28;20378;-74
2022/12/22 15:17:51;;;;;;;7.45;1.27;;;;;;;;;;5054452;28;20422;-73
2022/12/22 15:20:21;;;;;;;5.13;1.05;;;;;;;;;;5038137;28;20079;-73
2022/12/22 15:22:48;;;;;;;9.25;1.02;;;;;;;;;;5036889;28;20053;-73
2022/12/22 15:25:15;;;;;;;4.32;2.05;;;;;;;;;;5038985;28;20040;-73
2022/12/22 15:27:40;;;;;;;3.55;0.93;;;;;;;;;;5038431;28;20108;-73
2022/12/22 15:30:07;;;;;;;6.63;0.90;;;;;;;;;;5036718;28;20113;-74
2022/12/22 15:32:33;;;;;;;4.70;0.90;;;;;;;;;;5039000;28;20021;-73
2022/12/22 15:35:02;;;;;;;5.20;1.42;;;;;;;;;;5038293;28;20479;-73
2022/12/22 15:37:28;;;;;;;3.28;1.52;;;;;;;;;;5037125;28;20033;-74
2022/12/22 15:39:54;;;;;;;4.28;0.70;;;;;;;;;;5042348;28;20469;-75
2022/12/22 15:42:20;;;;;;;5.30;0.88;;;;;;;;;;5042715;28;20029;-73
2022/12/22 15:44:46;;;;;;;7.35;1.85;;;;;;;;;;5040993;28;20025;-76
2022/12/22 15:47:12;;;;;;;4.25;0.90;;;13.50;93.20;;;;;;5051974;28;20039;-73
2022/12/22 15:49:38;;;;;;;0.82;0.73;;;12.50;99.50;;;;;;5052045;28;20167;-73
2022/12/22 15:52:05;;;;;;;6.47;1.30;;;12.40;99.70;;;;;;5039933;28;20377;-74
2022/12/22 15:54:34;;;;;;;6.15;0.98;;;12.30;99.90;;;;;;5043334;28;20028;-73
2022/12/22 15:57:00;;;;;;;7.03;2.63;;;12.30;99.90;;;;;;5042181;28;20024;-73
2022/12/22 15:59:27;;;;;;;13.18;2.38;;;12.20;99.90;;;;;;5051392;28;20493;-73
2022/12/22 16:01:55;;;;;;;2.13;0.90;;;12.20;99.90;;;;;;5042628;28;20028;-74
2022/12/22 16:04:22;;;;;;;10.82;1.77;;;10.20;99.90;;;;;;5035398;28;20021;-72
2022/12/22 16:06:49;;;;;;;7.88;1.42;;;11.70;99.90;;;;;;5032987;28;20030;-71
2022/12/22 16:09:22;;;;;;;5.20;0.95;;;12.20;99.90;;;;;;5032975;28;20120;-73
2022/12/22 16:11:48;;;;;;;4.68;1.90;;;12.20;99.90;;;;;;5032987;28;20024;-72
2022/12/22 16:14:16;;;;;;;6.28;1.77;;;12.10;99.90;;;;;;5032954;28;20022;-72
2022/12/22 16:16:42;;;;;;;4.22;1.23;;;11.90;99.90;;;;;;5033643;28;20136;-72
2022/12/22 16:19:14;;;;;;;4.05;0.98;;;11.80;99.90;;;;;;5033045;28;20503;-72
2022/12/22 16:21:41;;;;;;;3.15;0.80;;;11.60;99.90;;;;;;5032898;28;20056;-72
2022/12/22 16:24:19;;;;;;;4.07;1.30;;;11.30;99.90;;;;;;5046072;28;20217;-72
2022/12/22 16:26:44;;;;;;;8.60;2.05;;;11.40;99.90;;;;;;5045916;28;20032;-72
2022/12/22 16:29:14;;;;;;;2.47;0.60;;;11.20;99.90;;;;;;5042412;28;20465;-72
2022/12/22 16:31:40;;;;;;;6.40;0.77;;;11.30;99.90;;;;;;5050481;28;20089;-71
2022/12/22 16:34:09;;;;;;;4.63;0.90;;;11.20;99.90;;;;;;5040023;28;20040;-71
2022/12/22 16:36:35;;;;;;;5.32;1.75;;;11.20;99.90;;;;;;5037469;28;20268;-72
2022/12/22 16:39:01;;;;;;;3.13;0.55;;;11.10;99.90;;;;;;5034215;28;20077;-71
2022/12/22 16:41:26;;;;;;;5.85;0.43;;;11.10;99.90;;;;;;5034303;28;20313;-71
2022/12/22 16:43:55;;;;;;;3.08;1.30;;;10.90;99.90;;;;;;5036633;28;20025;-72
2022/12/22 16:46:22;;;;;;;5.20;1.08;;;11.00;99.90;;;;;;5042138;28;20029;-72
2022/12/22 16:48:54;;;;;;;3.10;0.73;;;10.80;99.90;;;;;;5036801;28;20044;-72
2022/12/22 16:51:26;;;;;;;1.80;0.60;;;10.60;99.90;;;;;;5031180;28;20032;-72
2022/12/22 16:53:53;;;;;;;2.53;1.33;;;10.60;99.90;;;;;;5032365;28;20281;-72
2022/12/22 16:56:20;;;;;;;0.47;0.20;;;;;;;;;;5035374;28;20029;-73
2022/12/22 16:58:47;;;;;;;3.20;0.98;;;;;;;;;;5033249;28;20052;-72
2022/12/22 17:01:37;;;;;;;5.75;1.02;;;10.60;99.90;;;;;;5038058;28;20213;-72
2022/12/22 17:04:09;;;;;;;1.00;0.82;;;10.70;99.90;;;;;;5040628;28;20309;-72
2022/12/22 17:06:35;;;;;;;2.30;1.10;;;10.80;99.90;;;;;;5041448;28;20022;-71
2022/12/22 17:09:03;;;;;;;1.52;1.20;;;10.80;99.90;;;;;;5041528;28;20034;-72
2022/12/22 17:11:31;;;;;;;2.38;0.93;;;11.00;99.90;;;;;;5057315;28;20041;-72
2022/12/22 17:14:06;;;;;;;1.00;0.60;;;11.00;99.90;;;;;;5040766;28;20029;-73
2022/12/22 17:16:32;;;;;;;6.13;0.80;;;11.00;99.90;;;;;;5036051;28;20018;-73
2022/12/22 17:18:57;;;;;;;4.25;1.48;;;10.90;99.90;;;;;;5038074;28;20052;-73
2022/12/22 17:21:23;;;;;;;1.10;0.75;;;10.90;99.90;;;;;;5042388;28;20032;-72
2022/12/22 17:23:52;;;;;;;6.30;1.10;;;11.20;99.90;;;;;;5048706;28;20469;-72
2022/12/22 17:26:21;;;;;;;2.83;0.80;;;11.20;99.90;;;;;;5050095;28;20504;-72
2022/12/22 17:28:48;;;;;;;3.25;1.50;;;11.20;99.90;;;;;;5050156;28;20037;-72
2022/12/22 17:31:20;;;;;;;13.15;1.50;;;10.90;99.90;;;;;;5046830;28;20163;-72
2022/12/22 17:33:46;;;;;;;3.35;0.65;;;10.70;99.90;;;;;;5058352;28;20021;-72
2022/12/22 17:36:33;;;;;;;3.80;0.93;;;;;;;;;;5063406;28;20331;-74
2022/12/22 17:39:01;;;;;;;2.47;0.40;;;10.90;99.90;;;;;;5051596;28;20106;-71
2022/12/22 17:41:26;;;;;;;2.20;0.88;;;10.90;99.90;;;;;;5052059;28;20033;-72
2022/12/22 17:43:52;;;;;;;4.38;1.30;;;10.80;99.90;;;;;;5051151;28;20486;-72